Time;durP1;ratioP1;P1;durP2;ratioP2;P2;SDS_P1;SDS_P2;PMS_P1;PMS_P2;Temp;Humidity;BMP_temperature;BMP_pressure;BME280_temperature;BME280_humidity;BME280_pressure;Samples;Min_cycle;Max_cycle;Signal;HPM_P1;HPM_P2
2023/08/24 00:00:39;;;;;;;2.55;1.70;;;29.20;54.00;;;;;;5121832;27;20027;-67
2023/08/24 00:03:05;;;;;;;2.42;1.60;;;29.30;54.10;;;;;;5121258;27;20382;-66
2023/08/24 00:05:34;;;;;;;2.63;1.90;;;29.20;54.00;;;;;;5122349;27;20131;-67
2023/08/24 00:08:00;;;;;;;2.30;1.60;;;29.20;54.00;;;;;;5105944;27;20031;-67
2023/08/24 00:10:26;;;;;;;2.40;1.70;;;29.20;54.00;;;;;;5122187;27;20394;-67
2023/08/24 00:12:51;;;;;;;1.75;1.52;;;29.20;54.00;;;;;;5121913;27;20038;-67
2023/08/24 00:15:17;;;;;;;2.30;1.60;;;29.20;54.00;;;;;;5120828;27;20056;-67
2023/08/24 00:17:42;;;;;;;2.53;1.70;;;29.20;54.00;;;;;;5121714;27;20682;-67
2023/08/24 00:20:11;;;;;;;2.45;1.80;;;29.20;54.00;;;;;;5121189;27;20028;-67
2023/08/24 00:22:40;;;;;;;2.15;1.70;;;29.20;54.00;;;;;;5122270;27;20055;-67
2023/08/24 00:25:06;;;;;;;;;;;29.20;54.00;;;;;;5120434;27;20453;-67
2023/08/24 00:27:32;;;;;;;2.40;1.70;;;29.20;54.00;;;;;;5124144;27;19914;-67
2023/08/24 00:29:57;;;;;;;2.42;1.70;;;29.20;54.00;;;;;;5105205;27;20378;-66
2023/08/24 00:32:23;;;;;;;2.05;1.73;;;29.20;54.00;;;;;;5123805;27;20423;-67
2023/08/24 00:34:49;;;;;;;2.22;1.65;;;29.20;54.00;;;;;;5121033;27;20023;-66
2023/08/24 00:37:14;;;;;;;2.10;1.70;;;29.20;54.00;;;;;;5104253;27;20060;-67
2023/08/24 00:39:41;;;;;;;2.20;1.60;;;29.20;54.00;;;;;;5122969;27;20019;-66
2023/08/24 00:42:07;;;;;;;2.58;1.60;;;29.20;54.00;;;;;;5124625;27;20476;-62
2023/08/24 00:44:32;;;;;;;2.70;1.65;;;29.20;54.00;;;;;;5103047;27;20102;-63
2023/08/24 00:46:59;;;;;;;2.60;1.70;;;29.20;54.00;;;;;;5121860;27;20038;-62
2023/08/24 00:49:26;;;;;;;1.98;1.60;;;29.10;53.90;;;;;;5120193;27;20080;-64
2023/08/24 00:51:52;;;;;;;2.17;1.70;;;29.20;54.00;;;;;;5119711;27;20031;-62
2023/08/24 00:54:18;;;;;;;2.05;1.70;;;29.20;54.00;;;;;;5122700;27;20027;-63
2023/08/24 00:56:44;;;;;;;2.60;1.90;;;29.20;54.00;;;;;;5121063;27;20043;-62
2023/08/24 00:59:10;;;;;;;2.38;1.60;;;29.20;54.00;;;;;;5121317;27;20032;-61
2023/08/24 01:01:35;;;;;;;1.80;1.50;;;29.20;54.00;;;;;;5120696;27;20425;-64
2023/08/24 01:04:02;;;;;;;2.00;1.65;;;29.10;53.90;;;;;;5119988;27;20031;-64
2023/08/24 01:06:28;;;;;;;2.17;1.60;;;29.10;54.00;;;;;;5120454;27;20364;-64
2023/08/24 01:08:54;;;;;;;2.75;1.70;;;29.10;54.00;;;;;;5121710;27;20030;-64
2023/08/24 01:11:28;;;;;;;1.95;1.60;;;29.10;54.00;;;;;;5117359;27;20052;-64
2023/08/24 01:14:02;;;;;;;1.90;1.60;;;29.10;54.00;;;;;;5116386;27;20082;-66
2023/08/24 01:16:31;;;;;;;2.20;1.60;;;29.20;54.00;;;;;;5118424;27;20039;-66
2023/08/24 01:18:59;;;;;;;3.15;1.80;;;29.10;54.00;;;;;;5121225;27;20027;-66
2023/08/24 01:21:27;;;;;;;2.10;1.70;;;29.10;54.00;;;;;;5119722;27;20075;-67
2023/08/24 01:24:46;;;;;;;1.93;1.60;;;29.20;54.00;;;;;;5120784;27;20703;-66
2023/08/24 01:27:13;;;;;;;2.42;1.58;;;29.10;53.90;;;;;;5118001;27;20273;-67
2023/08/24 01:29:40;;;;;;;1.98;1.50;;;29.10;54.00;;;;;;5122199;27;20054;-67
2023/08/24 01:32:10;;;;;;;2.30;1.75;;;29.10;54.00;;;;;;5123285;27;20536;-66
2023/08/24 01:34:38;;;;;;;2.42;1.80;;;29.10;54.00;;;;;;5119266;27;20027;-67
2023/08/24 01:37:05;;;;;;;2.50;1.73;;;29.10;54.00;;;;;;5117145;27;20425;-67
2023/08/24 01:39:42;;;;;;;2.47;1.77;;;29.10;54.00;;;;;;5119433;27;20581;-66
2023/08/24 01:42:11;;;;;;;2.13;1.60;;;29.10;53.90;;;;;;5122427;27;20994;-66
2023/08/24 01:44:41;;;;;;;2.10;1.60;;;29.10;54.00;;;;;;5121106;27;20056;-67
2023/08/24 01:47:11;;;;;;;1.92;1.60;;;29.10;53.90;;;;;;5120883;27;20031;-67
2023/08/24 01:49:37;;;;;;;1.83;1.52;;;29.10;54.00;;;;;;5120701;27;20058;-67
2023/08/24 01:52:04;;;;;;;2.05;1.67;;;29.10;54.00;;;;;;5118642;27;20852;-61
2023/08/24 01:54:30;;;;;;;2.60;1.70;;;29.10;54.00;;;;;;5119702;27;20486;-62
2023/08/24 01:56:56;;;;;;;2.28;1.70;;;29.10;54.00;;;;;;5120916;27;20015;-62
2023/08/24 01:59:22;;;;;;;2.20;1.65;;;29.10;54.00;;;;;;5119728;27;20555;-62
2023/08/24 02:01:47;;;;;;;2.40;1.75;;;29.10;54.00;;;;;;5118207;27;20050;-62
2023/08/24 02:04:13;;;;;;;2.10;1.70;;;29.10;54.00;;;;;;5120004;27;20066;-62
2023/08/24 02:06:39;;;;;;;2.03;1.70;;;29.10;54.50;;;;;;5118532;27;20448;-62
2023/08/24 02:09:05;;;;;;;1.90;1.50;;;29.10;54.00;;;;;;5119915;27;20027;-63
2023/08/24 02:11:30;;;;;;;2.05;1.70;;;29.10;54.00;;;;;;5103254;27;20029;-62
2023/08/24 02:13:56;;;;;;;2.05;1.70;;;29.10;54.00;;;;;;5120408;27;20039;-63
2023/08/24 02:16:22;;;;;;;2.13;1.60;;;29.10;54.00;;;;;;5119996;27;20091;-62
2023/08/24 02:18:48;;;;;;;1.95;1.63;;;29.10;54.00;;;;;;5119104;27;20031;-61
2023/08/24 02:21:15;;;;;;;2.33;1.73;;;29.10;54.00;;;;;;5117130;27;20031;-62
2023/08/24 02:23:40;;;;;;;2.08;1.65;;;29.10;54.00;;;;;;5121036;27;20027;-66
2023/08/24 02:26:06;;;;;;;1.92;1.60;;;29.10;54.00;;;;;;5120780;27;20101;-66
2023/08/24 02:28:33;;;;;;;2.17;1.70;;;29.00;53.90;;;;;;5120112;27;20028;-66
2023/08/24 02:31:03;;;;;;;2.22;1.73;;;29.10;54.00;;;;;;5119446;27;20463;-66
2023/08/24 02:33:29;;;;;;;2.67;1.50;;;29.00;53.90;;;;;;5119442;27;20019;-66
2023/08/24 02:35:55;;;;;;;1.98;1.60;;;29.10;54.00;;;;;;5118349;27;20107;-66
2023/08/24 02:38:20;;;;;;;2.30;1.70;;;29.00;53.90;;;;;;5118725;27;20039;-66
2023/08/24 02:40:46;;;;;;;1.90;1.58;;;29.10;54.00;;;;;;5120629;27;20138;-66
2023/08/24 02:43:12;;;;;;;1.77;1.42;;;29.10;54.00;;;;;;5119415;27;20023;-66
2023/08/24 02:45:38;;;;;;;1.85;1.40;;;29.00;53.90;;;;;;5119639;27;20502;-66
2023/08/24 02:48:04;;;;;;;1.85;1.60;;;29.00;53.90;;;;;;5120405;27;20171;-66
2023/08/24 02:50:30;;;;;;;1.88;1.55;;;29.00;53.90;;;;;;5120048;27;20035;-66
2023/08/24 02:52:57;;;;;;;2.08;1.50;;;29.00;53.90;;;;;;5118230;27;20027;-66
2023/08/24 02:55:24;;;;;;;1.95;1.60;;;29.00;53.90;;;;;;5118833;27;20026;-66
2023/08/24 02:57:49;;;;;;;2.05;1.50;;;29.10;54.00;;;;;;5119632;27;20235;-66
2023/08/24 03:00:15;;;;;;;2.08;1.50;;;29.00;53.90;;;;;;5119053;27;20024;-66
2023/08/24 03:02:41;;;;;;;1.90;1.50;;;29.00;53.90;;;;;;5120176;27;20112;-64
2023/08/24 03:05:07;;;;;;;2.25;1.60;;;29.00;53.90;;;;;;5119500;27;20035;-64
2023/08/24 03:07:33;;;;;;;1.85;1.33;;;29.10;54.00;;;;;;5117179;27;20024;-64
2023/08/24 03:09:58;;;;;;;2.83;1.70;;;29.00;53.90;;;;;;5118838;27;20035;-64
2023/08/24 03:12:24;;;;;;;1.65;1.30;;;29.00;53.90;;;;;;5118235;27;20031;-65
2023/08/24 03:14:53;;;;;;;1.77;1.42;;;29.00;53.90;;;;;;5120263;27;20170;-64
2023/08/24 03:17:19;;;;;;;1.92;1.65;;;29.00;53.90;;;;;;5119841;27;20023;-64
2023/08/24 03:19:44;;;;;;;2.28;1.60;;;29.00;53.90;;;;;;5118007;27;20024;-65
2023/08/24 03:22:10;;;;;;;3.35;2.40;;;29.00;52.70;;;;;;5118703;27;20031;-67
2023/08/24 03:24:36;;;;;;;2.90;2.30;;;29.00;50.90;;;;;;5119058;28;20027;-67
2023/08/24 03:27:02;;;;;;;4.80;2.60;;;28.90;49.80;;;;;;5119296;27;20024;-66
2023/08/24 03:29:28;;;;;;;3.78;2.70;;;28.90;49.10;;;;;;5109338;28;20093;-67
2023/08/24 03:31:53;;;;;;;3.97;2.67;;;28.90;48.70;;;;;;5120946;28;20057;-67
2023/08/24 03:34:20;;;;;;;2.88;2.30;;;28.90;48.70;;;;;;5119510;28;20028;-66
2023/08/24 03:36:47;;;;;;;3.65;2.55;;;28.80;48.50;;;;;;5117050;28;20024;-66
2023/08/24 03:39:14;;;;;;;3.70;2.47;;;28.90;48.40;;;;;;5118948;28;20094;-65
2023/08/24 03:41:40;;;;;;;2.63;2.33;;;28.80;48.20;;;;;;5119710;28;20035;-66
2023/08/24 03:44:05;;;;;;;3.58;2.60;;;28.70;48.00;;;;;;5118741;28;20023;-66
2023/08/24 03:46:31;;;;;;;4.13;3.03;;;28.70;47.80;;;;;;5101401;28;20023;-66
2023/08/24 03:48:56;;;;;;;4.97;2.90;;;28.60;47.40;;;;;;5118104;28;20392;-65
2023/08/24 03:51:22;;;;;;;3.05;2.58;;;28.60;47.50;;;;;;5116716;28;20084;-66
2023/08/24 03:53:48;;;;;;;5.25;2.72;;;28.50;47.40;;;;;;5117963;28;20043;-66
2023/08/24 03:56:13;;;;;;;3.72;2.45;;;28.50;47.40;;;;;;5119704;28;20029;-66
2023/08/24 03:58:39;;;;;;;3.95;2.40;;;28.40;47.60;;;;;;5118230;28;20019;-65
2023/08/24 04:01:06;;;;;;;3.08;2.22;;;28.40;47.50;;;;;;5119967;28;20035;-65
2023/08/24 04:03:32;;;;;;;3.55;2.60;;;28.30;47.60;;;;;;5101541;28;20027;-64
2023/08/24 04:05:57;;;;;;;3.53;2.30;;;28.30;47.70;;;;;;5119008;28;20042;-66
2023/08/24 04:08:23;;;;;;;4.43;2.72;;;28.20;47.70;;;;;;5116903;28;20484;-66
2023/08/24 04:10:49;;;;;;;4.15;2.33;;;28.20;47.80;;;;;;5117918;28;20031;-66
2023/08/24 04:13:14;;;;;;;3.97;2.60;;;28.20;47.80;;;;;;5118299;28;20042;-67
2023/08/24 04:15:40;;;;;;;3.55;2.53;;;28.10;47.90;;;;;;5119256;28;20026;-67
2023/08/24 04:18:06;;;;;;;3.97;2.60;;;28.10;48.00;;;;;;5118575;27;20427;-67
2023/08/24 04:20:31;;;;;;;3.78;2.38;;;28.10;48.00;;;;;;5122628;27;20023;-66
2023/08/24 04:22:57;;;;;;;3.63;2.40;;;28.10;48.00;;;;;;5119226;27;20031;-67
2023/08/24 04:25:22;;;;;;;4.88;2.97;;;28.00;47.90;;;;;;5121389;27;20110;-66
2023/08/24 04:27:49;;;;;;;3.60;2.42;;;28.00;48.00;;;;;;5121823;27;20027;-66
2023/08/24 04:30:15;;;;;;;3.22;2.42;;;28.00;48.00;;;;;;5122030;27;20439;-67
2023/08/24 04:32:40;;;;;;;3.15;2.38;;;27.90;48.00;;;;;;5121501;27;20098;-66
2023/08/24 04:35:07;;;;;;;3.55;2.55;;;27.90;48.00;;;;;;5119179;27;20495;-66
2023/08/24 04:37:33;;;;;;;3.25;2.40;;;27.80;48.10;;;;;;5122102;27;20047;-67
2023/08/24 04:39:58;;;;;;;3.42;2.30;;;27.80;48.10;;;;;;5122796;27;20407;-66
2023/08/24 04:42:24;;;;;;;4.60;2.70;;;27.80;48.20;;;;;;5122131;27;20079;-61
2023/08/24 04:44:51;;;;;;;4.05;2.70;;;27.80;48.30;;;;;;5120750;27;20479;-61
2023/08/24 04:47:16;;;;;;;3.47;2.83;;;27.70;48.20;;;;;;5120818;27;20443;-61
2023/08/24 04:49:42;;;;;;;3.72;2.80;;;27.70;48.30;;;;;;5123028;27;20039;-62
2023/08/24 04:52:07;;;;;;;4.10;2.70;;;27.60;48.40;;;;;;5123163;27;20474;-62
2023/08/24 04:54:33;;;;;;;4.28;2.53;;;27.60;48.50;;;;;;5136426;27;20497;-62
2023/08/24 04:56:59;;;;;;;3.67;2.70;;;27.60;48.50;;;;;;5120101;27;20020;-61
2023/08/24 04:59:25;;;;;;;3.95;2.53;;;27.50;48.50;;;;;;5120508;27;20030;-61
2023/08/24 05:01:53;;;;;;;4.18;2.80;;;27.50;49.10;;;;;;5120834;27;20019;-62
2023/08/24 05:04:19;;;;;;;4.20;2.83;;;27.50;48.70;;;;;;5121980;27;20038;-61
2023/08/24 05:06:44;;;;;;;3.72;2.83;;;27.40;48.70;;;;;;5120302;27;20083;-61
2023/08/24 05:09:10;;;;;;;4.43;2.80;;;27.40;48.80;;;;;;5120320;27;20410;-60
2023/08/24 05:11:36;;;;;;;4.63;2.97;;;27.40;48.80;;;;;;5121217;27;20043;-61
2023/08/24 05:14:01;;;;;;;3.95;2.80;;;27.40;48.90;;;;;;5123035;27;20452;-61
2023/08/24 05:16:27;;;;;;;3.80;2.90;;;27.30;48.80;;;;;;5121937;27;20027;-61
2023/08/24 05:18:53;;;;;;;4.38;3.05;;;27.30;48.80;;;;;;5121679;27;20023;-61
2023/08/24 05:21:19;;;;;;;4.03;2.85;;;27.30;48.90;;;;;;5121089;27;20024;-61
2023/08/24 05:23:44;;;;;;;5.38;2.97;;;27.30;49.10;;;;;;5119036;27;20052;-66
2023/08/24 05:26:10;;;;;;;3.88;2.97;;;27.30;49.20;;;;;;5121439;27;20031;-66
2023/08/24 05:28:35;;;;;;;4.88;3.20;;;27.30;49.30;;;;;;5119331;27;20467;-66
2023/08/24 05:31:01;;;;;;;4.43;3.28;;;27.30;49.90;;;;;;5119826;27;20066;-66
2023/08/24 05:33:27;;;;;;;4.40;3.55;;;27.20;49.40;;;;;;5119234;27;20458;-66
2023/08/24 05:35:53;;;;;;;4.55;3.47;;;27.20;49.50;;;;;;5121361;27;20133;-67
2023/08/24 05:38:19;;;;;;;4.13;3.13;;;27.20;49.70;;;;;;5121074;27;20522;-67
2023/08/24 05:40:48;;;;;;;7.13;3.28;;;27.10;49.80;;;;;;5120930;27;20059;-66
2023/08/24 05:43:13;;;;;;;5.03;3.42;;;27.10;50.00;;;;;;5120780;27;20743;-66
2023/08/24 05:45:40;;;;;;;4.18;3.15;;;27.10;50.20;;;;;;5120414;27;20019;-66
2023/08/24 05:48:07;;;;;;;4.30;3.40;;;27.10;50.40;;;;;;5121325;27;20028;-66
2023/08/24 05:50:33;;;;;;;4.63;3.22;;;27.10;50.60;;;;;;5118303;27;20068;-66
2023/08/24 05:52:58;;;;;;;3.78;3.10;;;27.10;50.80;;;;;;5120334;27;20135;-66
2023/08/24 05:55:24;;;;;;;3.50;2.97;;;27.00;51.00;;;;;;5120795;27;20053;-65
2023/08/24 05:57:49;;;;;;;5.13;3.25;;;27.00;51.30;;;;;;5121445;27;20088;-66
2023/08/24 06:00:15;;;;;;;4.70;3.10;;;27.00;51.40;;;;;;5121777;27;20050;-65
2023/08/24 06:02:41;;;;;;;4.13;2.92;;;27.00;51.50;;;;;;5121630;27;20068;-65
2023/08/24 06:05:07;;;;;;;5.25;3.25;;;26.90;51.60;;;;;;5120544;27;20031;-66
2023/08/24 06:07:34;;;;;;;3.67;2.80;;;26.90;51.80;;;;;;5119925;27;20077;-66
2023/08/24 06:10:00;;;;;;;5.15;3.00;;;26.90;52.00;;;;;;5119534;27;20031;-65
2023/08/24 06:12:25;;;;;;;4.60;2.83;;;26.90;52.00;;;;;;5123099;27;20440;-65
2023/08/24 06:14:51;;;;;;;5.30;3.00;;;26.90;52.00;;;;;;5118828;27;20115;-65
2023/08/24 06:17:16;;;;;;;5.28;3.33;;;26.80;51.90;;;;;;5121238;27;20391;-65
2023/08/24 06:19:43;;;;;;;4.00;3.00;;;26.80;52.30;;;;;;5118238;27;20080;-66
2023/08/24 06:22:08;;;;;;;4.45;3.30;;;26.80;51.70;;;;;;5118944;27;20467;-65
2023/08/24 06:24:34;;;;;;;4.20;3.10;;;26.80;51.70;;;;;;5120234;27;20043;-65
2023/08/24 06:27:00;;;;;;;4.72;3.38;;;26.80;51.80;;;;;;5119205;27;20062;-66
2023/08/24 06:29:28;;;;;;;4.50;2.85;;;26.80;51.90;;;;;;5118580;27;20023;-65
2023/08/24 06:31:54;;;;;;;3.95;2.85;;;26.70;51.90;;;;;;5117955;27;20039;-66
2023/08/24 06:34:20;;;;;;;5.07;3.10;;;26.70;52.00;;;;;;5120080;27;20036;-66
2023/08/24 06:36:47;;;;;;;5.53;3.05;;;26.70;52.00;;;;;;5103557;27;20038;-66
2023/08/24 06:39:12;;;;;;;4.68;2.80;;;26.70;52.20;;;;;;5119094;27;20031;-67
2023/08/24 06:41:38;;;;;;;4.93;3.05;;;26.70;52.30;;;;;;5119208;27;20023;-66
2023/08/24 06:44:04;;;;;;;4.90;3.20;;;26.60;52.40;;;;;;5119456;27;20019;-63
2023/08/24 06:46:29;;;;;;;4.18;3.40;;;26.60;52.40;;;;;;5118476;27;20182;-64
2023/08/24 06:48:55;;;;;;;3.85;2.70;;;26.60;52.50;;;;;;5117716;27;20020;-64
2023/08/24 06:51:21;;;;;;;4.22;2.65;;;26.60;52.60;;;;;;5119275;27;20061;-64
2023/08/24 06:53:48;;;;;;;4.00;2.30;;;26.60;52.70;;;;;;5117601;27;20023;-65
2023/08/24 06:56:23;;;;;;;4.15;2.35;;;26.50;52.70;;;;;;5118604;27;20784;-66
2023/08/24 06:58:49;;;;;;;3.80;2.40;;;26.50;52.80;;;;;;5119612;27;20046;-66
2023/08/24 07:01:15;;;;;;;3.92;2.55;;;26.50;52.80;;;;;;5120906;27;20027;-65
2023/08/24 07:03:41;;;;;;;3.63;2.30;;;26.50;52.80;;;;;;5116370;27;20027;-63
2023/08/24 07:06:07;;;;;;;3.55;2.17;;;26.60;52.80;;;;;;5118780;27;20027;-64
2023/08/24 07:08:33;;;;;;;3.15;2.30;;;26.50;52.70;;;;;;5116956;27;20084;-63
2023/08/24 07:10:59;;;;;;;3.42;2.45;;;26.60;52.80;;;;;;5118643;27;20031;-64
2023/08/24 07:13:26;;;;;;;3.08;2.05;;;26.50;52.70;;;;;;5121565;27;20027;-63
2023/08/24 07:15:52;;;;;;;3.13;2.13;;;26.60;52.80;;;;;;5119947;27;20019;-63
2023/08/24 07:18:17;;;;;;;3.70;2.20;;;26.60;52.80;;;;;;5120046;27;20577;-63
2023/08/24 07:20:43;;;;;;;2.78;2.22;;;26.60;52.80;;;;;;5119472;27;20103;-64
2023/08/24 07:23:09;;;;;;;3.50;2.20;;;26.60;52.80;;;;;;5099750;28;20439;-64
2023/08/24 07:25:34;;;;;;;3.30;2.38;;;26.60;52.80;;;;;;5119046;28;20038;-64
2023/08/24 07:28:02;;;;;;;3.58;2.10;;;26.60;52.80;;;;;;5118365;27;20498;-64
2023/08/24 07:30:28;;;;;;;2.83;2.00;;;26.60;53.30;;;;;;5117028;28;20039;-64
2023/08/24 07:32:54;;;;;;;2.47;2.00;;;26.60;52.80;;;;;;5119938;28;20032;-64
2023/08/24 07:35:20;;;;;;;3.20;2.25;;;26.60;52.80;;;;;;5117443;28;20461;-64
2023/08/24 07:37:47;;;;;;;2.50;2.00;;;26.60;52.80;;;;;;5118896;28;20034;-64
2023/08/24 07:40:14;;;;;;;2.90;2.13;;;26.60;52.80;;;;;;5116709;28;20028;-64
2023/08/24 07:42:50;;;;;;;3.00;2.00;;;26.70;52.80;;;;;;5118807;28;20058;-66
2023/08/24 07:45:16;;;;;;;2.97;2.00;;;26.60;52.80;;;;;;5118753;28;20023;-66
2023/08/24 07:47:43;;;;;;;2.60;1.90;;;26.60;52.80;;;;;;5117397;28;20016;-66
2023/08/24 07:50:09;;;;;;;2.58;1.98;;;26.70;52.80;;;;;;5118892;28;20117;-66
2023/08/24 07:52:39;;;;;;;2.58;2.00;;;26.70;52.90;;;;;;5118792;27;20473;-66
2023/08/24 07:55:06;;;;;;;3.15;1.98;;;26.70;52.80;;;;;;5119626;27;20098;-66
2023/08/24 07:57:36;;;;;;;3.00;2.10;;;26.70;52.80;;;;;;5122922;27;20473;-66
2023/08/24 08:00:06;;;;;;;2.90;1.98;;;26.70;52.90;;;;;;5121267;27;20122;-66
2023/08/24 08:02:35;;;;;;;2.80;2.08;;;26.70;52.90;;;;;;5121527;27;20028;-64
2023/08/24 08:05:01;;;;;;;2.72;1.83;;;26.70;52.90;;;;;;5118998;27;20510;-64
2023/08/24 08:07:27;;;;;;;2.42;1.90;;;26.70;52.90;;;;;;5125309;27;20073;-64
2023/08/24 08:09:53;;;;;;;3.13;2.00;;;26.70;52.90;;;;;;5120859;27;20036;-64
2023/08/24 08:12:18;;;;;;;2.22;1.88;;;26.70;52.90;;;;;;5122712;27;20132;-66
2023/08/24 08:14:44;;;;;;;2.78;2.15;;;26.70;52.90;;;;;;5123696;27;20623;-66
2023/08/24 08:17:09;;;;;;;2.80;1.92;;;26.70;52.90;;;;;;5122586;27;20024;-66
2023/08/24 08:19:37;;;;;;;2.67;1.95;;;26.70;52.90;;;;;;5123503;27;20028;-66
2023/08/24 08:22:03;;;;;;;2.17;1.70;;;26.70;53.00;;;;;;5122878;27;20028;-66
2023/08/24 08:24:29;;;;;;;2.53;1.92;;;26.70;52.90;;;;;;5121162;27;20019;-66
2023/08/24 08:26:54;;;;;;;2.47;1.80;;;26.80;53.00;;;;;;5123152;27;20034;-66
2023/08/24 08:29:20;;;;;;;2.30;1.73;;;26.80;53.00;;;;;;5123465;27;20068;-66
2023/08/24 08:31:46;;;;;;;3.15;2.28;;;26.80;53.00;;;;;;5122751;27;20023;-66
2023/08/24 08:34:12;;;;;;;2.42;1.90;;;26.80;53.00;;;;;;5121409;27;20035;-65
2023/08/24 08:36:37;;;;;;;2.20;1.80;;;26.80;53.00;;;;;;5123154;27;20035;-66
2023/08/24 08:39:04;;;;;;;2.50;1.77;;;26.80;53.00;;;;;;5122579;27;20432;-66
2023/08/24 08:41:36;;;;;;;2.70;1.85;;;26.80;53.00;;;;;;5123253;27;20031;-66
2023/08/24 08:44:06;;;;;;;2.72;1.83;;;26.80;53.00;;;;;;5122226;27;20485;-66
2023/08/24 08:46:35;;;;;;;2.78;2.00;;;26.70;53.50;;;;;;5121615;27;20027;-66
2023/08/24 08:49:02;;;;;;;2.63;2.03;;;26.80;53.50;;;;;;5120597;27;20035;-66
2023/08/24 08:51:29;;;;;;;2.35;1.88;;;26.80;53.00;;;;;;5120269;27;20118;-66
2023/08/24 08:53:55;;;;;;;2.58;1.70;;;26.80;53.10;;;;;;5119519;27;20073;-64
2023/08/24 08:56:22;;;;;;;2.35;1.75;;;26.80;53.00;;;;;;5121113;27;20019;-64
2023/08/24 08:58:49;;;;;;;2.38;1.88;;;26.80;53.00;;;;;;5121880;27;20032;-64
2023/08/24 09:01:17;;;;;;;2.03;1.75;;;26.80;53.10;;;;;;5122222;27;20046;-64
2023/08/24 09:03:44;;;;;;;2.42;1.80;;;26.80;53.10;;;;;;5122056;27;20023;-64
2023/08/24 09:06:10;;;;;;;2.60;1.95;;;26.80;53.00;;;;;;5122576;27;20119;-64
2023/08/24 09:08:36;;;;;;;2.55;1.77;;;26.90;53.10;;;;;;5120454;27;20574;-64
2023/08/24 09:11:03;;;;;;;2.10;1.70;;;26.90;53.10;;;;;;5120930;27;20027;-64
2023/08/24 09:13:29;;;;;;;2.50;1.80;;;26.90;53.10;;;;;;5120455;27;20073;-65
2023/08/24 09:16:02;;;;;;;2.20;1.83;;;26.90;53.10;;;;;;5122138;27;20043;-66
2023/08/24 09:18:38;;;;;;;2.50;1.90;;;26.90;53.10;;;;;;5119125;27;20085;-65
2023/08/24 09:21:14;;;;;;;2.47;1.80;;;26.90;53.10;;;;;;5120661;27;20474;-65
2023/08/24 09:23:47;;;;;;;2.22;1.80;;;26.90;53.10;;;;;;5120150;27;20114;-60
2023/08/24 09:26:13;;;;;;;2.25;1.77;;;26.90;53.10;;;;;;5118418;27;20019;-60
2023/08/24 09:28:43;;;;;;;2.33;1.80;;;26.90;53.10;;;;;;5121646;27;20038;-60
2023/08/24 09:31:11;;;;;;;2.28;1.80;;;26.90;53.10;;;;;;5121758;27;20027;-60
2023/08/24 09:33:36;;;;;;;2.40;1.60;;;26.90;53.10;;;;;;5119388;27;20643;-61
2023/08/24 09:36:06;;;;;;;2.50;1.90;;;26.90;53.10;;;;;;5120071;27;20023;-59
2023/08/24 09:38:31;;;;;;;;;;;26.90;53.10;;;;;;5120532;27;20027;-60
2023/08/24 09:40:57;;;;;;;2.20;1.70;;;26.90;53.10;;;;;;5118283;27;20323;-60
2023/08/24 09:43:23;;;;;;;1.65;1.50;;;26.90;53.10;;;;;;5120841;27;20032;-61
2023/08/24 09:45:52;;;;;;;2.17;1.65;;;26.90;53.20;;;;;;5121149;27;20118;-60
2023/08/24 09:48:18;;;;;;;2.47;1.95;;;27.00;53.30;;;;;;5119720;27;20046;-60
2023/08/24 09:50:51;;;;;;;2.40;1.75;;;27.00;53.20;;;;;;5121276;27;20063;-60
2023/08/24 09:53:22;;;;;;;2.30;1.75;;;27.00;53.30;;;;;;5118571;27;20030;-60
2023/08/24 09:56:01;;;;;;;2.35;1.90;;;27.00;53.30;;;;;;5119168;27;20035;-60
2023/08/24 09:58:27;;;;;;;2.72;1.90;;;27.00;53.80;;;;;;5122210;27;20047;-60
2023/08/24 10:00:54;;;;;;;2.50;1.90;;;27.00;53.30;;;;;;5113136;27;20020;-59
2023/08/24 10:03:27;;;;;;;2.40;1.70;;;27.00;53.30;;;;;;5119343;27;20039;-63
2023/08/24 10:05:54;;;;;;;2.40;1.88;;;27.00;53.30;;;;;;5121529;27;20110;-63
2023/08/24 10:08:34;;;;;;;2.60;1.73;;;27.00;53.30;;;;;;5119997;27;20023;-63
2023/08/24 10:11:00;;;;;;;2.38;1.60;;;27.00;53.30;;;;;;5117882;27;20114;-63
2023/08/24 10:13:41;;;;;;;2.67;1.75;;;27.00;53.30;;;;;;5119604;27;20501;-65
2023/08/24 10:16:08;;;;;;;2.58;1.90;;;27.00;53.30;;;;;;5119137;27;20026;-64
2023/08/24 10:18:34;;;;;;;2.30;1.80;;;27.00;53.40;;;;;;5121142;27;20034;-64
2023/08/24 10:21:01;;;;;;;2.50;1.98;;;27.00;53.40;;;;;;5119979;27;20072;-65
2023/08/24 10:23:29;;;;;;;2.50;1.80;;;27.00;53.40;;;;;;5122226;27;20103;-65
2023/08/24 10:25:55;;;;;;;2.77;1.80;;;27.00;53.40;;;;;;5119256;27;20039;-64
2023/08/24 10:28:25;;;;;;;2.53;1.90;;;27.00;53.40;;;;;;5119811;27;20127;-65
2023/08/24 10:30:52;;;;;;;2.10;1.73;;;27.00;53.40;;;;;;5119586;27;20421;-65
2023/08/24 10:33:18;;;;;;;2.83;1.80;;;27.00;53.40;;;;;;5121174;27;20384;-66
2023/08/24 10:35:46;;;;;;;2.63;1.98;;;27.10;53.50;;;;;;5119835;27;20552;-65
2023/08/24 10:38:28;;;;;;;2.30;1.80;;;27.00;53.40;;;;;;5118242;27;20039;-65
2023/08/24 10:41:01;;;;;;;2.47;1.83;;;27.10;53.50;;;;;;5116157;27;20026;-66
2023/08/24 10:43:26;;;;;;;2.58;1.80;;;27.10;54.00;;;;;;5118708;27;20087;-64
2023/08/24 10:46:03;;;;;;;2.28;1.67;;;27.10;53.50;;;;;;5120347;27;20103;-63
2023/08/24 10:48:31;;;;;;;2.50;1.90;;;27.10;53.60;;;;;;5118154;27;20032;-63
2023/08/24 10:51:18;;;;;;;2.80;1.90;;;27.10;54.10;;;;;;5118959;27;20035;-64
2023/08/24 10:53:46;;;;;;;2.70;1.83;;;27.10;54.10;;;;;;5119080;27;20023;-63
2023/08/24 10:56:15;;;;;;;2.28;1.80;;;27.10;53.60;;;;;;5113982;27;20077;-63
2023/08/24 10:58:42;;;;;;;2.15;1.75;;;27.10;53.60;;;;;;5119671;27;20034;-63
2023/08/24 11:01:13;;;;;;;2.40;1.80;;;27.10;53.60;;;;;;5118374;27;20115;-63
2023/08/24 11:03:40;;;;;;;2.50;1.80;;;27.10;53.70;;;;;;5123001;27;20095;-64
2023/08/24 11:06:18;;;;;;;2.40;1.80;;;27.10;53.60;;;;;;5120021;27;20107;-64
2023/08/24 11:08:45;;;;;;;2.50;1.80;;;27.10;53.70;;;;;;5119045;27;20037;-64
2023/08/24 11:11:21;;;;;;;2.50;1.88;;;27.10;53.60;;;;;;5115909;27;20327;-64
2023/08/24 11:14:29;;;;;;;2.58;1.70;;;27.10;53.60;;;;;;5118278;27;20425;-63
2023/08/24 11:16:57;;;;;;;2.20;1.70;;;27.10;53.70;;;;;;5119101;27;20028;-63
2023/08/24 11:19:23;;;;;;;2.30;1.77;;;27.10;53.70;;;;;;5119507;27;20415;-63
2023/08/24 11:21:51;;;;;;;2.17;1.67;;;27.10;53.70;;;;;;5119600;27;20028;-63
2023/08/24 11:24:17;;;;;;;2.40;1.75;;;27.20;53.80;;;;;;5099787;28;20072;-63
2023/08/24 11:26:45;;;;;;;2.40;1.65;;;27.10;53.70;;;;;;5119023;27;20023;-63
2023/08/24 11:29:11;;;;;;;2.03;1.60;;;27.20;53.80;;;;;;5101051;27;20570;-63
2023/08/24 11:31:37;;;;;;;2.17;1.85;;;27.20;53.80;;;;;;5117988;28;20043;-63
2023/08/24 11:34:04;;;;;;;2.10;1.70;;;27.10;54.30;;;;;;5118220;28;20035;-60
2023/08/24 11:36:43;;;;;;;2.35;1.80;;;27.20;53.80;;;;;;5117415;28;20042;-60
2023/08/24 11:39:14;;;;;;;;;;;27.20;53.90;;;;;;5119797;28;20054;-60
2023/08/24 11:41:40;;;;;;;2.55;1.75;;;27.20;53.80;;;;;;5118348;28;19929;-59
2023/08/24 11:44:06;;;;;;;2.35;1.80;;;27.20;53.80;;;;;;5119406;28;20035;-66
2023/08/24 11:46:31;;;;;;;2.17;1.75;;;27.20;53.80;;;;;;5119176;28;20029;-65
2023/08/24 11:48:59;;;;;;;2.47;1.73;;;27.20;53.90;;;;;;5118117;28;20445;-66
2023/08/24 11:51:24;;;;;;;2.10;1.60;;;27.20;53.90;;;;;;5116830;28;20031;-65
2023/08/24 11:53:51;;;;;;;2.33;1.80;;;27.20;53.90;;;;;;5119366;28;20038;-61
2023/08/24 11:56:18;;;;;;;2.33;1.80;;;27.20;53.90;;;;;;5116081;28;20015;-60
2023/08/24 11:58:48;;;;;;;2.72;2.00;;;27.20;53.90;;;;;;5103457;28;20083;-61
2023/08/24 12:01:14;;;;;;;2.40;1.70;;;27.20;53.90;;;;;;5120562;28;20022;-62
2023/08/24 12:03:40;;;;;;;1.92;1.52;;;27.20;53.90;;;;;;5117327;28;20024;-58
2023/08/24 12:06:15;;;;;;;2.10;1.70;;;27.20;53.90;;;;;;5115830;28;20034;-60
2023/08/24 12:08:42;;;;;;;2.17;1.67;;;27.20;53.90;;;;;;5118943;28;20035;-59
2023/08/24 12:11:18;;;;;;;2.55;1.73;;;27.20;53.90;;;;;;5117546;28;20165;-59
2023/08/24 12:13:50;;;;;;;2.17;1.70;;;27.20;53.90;;;;;;5118053;28;20028;-61
2023/08/24 12:16:19;;;;;;;2.80;1.80;;;27.30;54.00;;;;;;5115710;28;20732;-59
2023/08/24 12:18:53;;;;;;;2.10;1.60;;;27.30;54.00;;;;;;5111682;28;20020;-61
2023/08/24 12:21:20;;;;;;;2.30;1.50;;;27.30;54.00;;;;;;5117837;28;20428;-59
2023/08/24 12:24:16;;;;;;;2.15;1.60;;;27.30;54.00;;;;;;5103574;28;20027;-60
2023/08/24 12:26:41;;;;;;;2.10;1.60;;;27.30;54.00;;;;;;5101895;28;20092;-59
2023/08/24 12:29:09;;;;;;;2.15;1.67;;;27.30;54.00;;;;;;5119054;28;20033;-61
2023/08/24 12:31:35;;;;;;;2.45;1.80;;;27.30;54.00;;;;;;5119302;28;20031;-59
2023/08/24 12:34:06;;;;;;;2.58;1.90;;;27.30;54.00;;;;;;5119836;28;20391;-58
2023/08/24 12:36:33;;;;;;;2.45;1.77;;;27.30;54.00;;;;;;5118763;28;20023;-63
2023/08/24 12:38:59;;;;;;;1.98;1.50;;;27.30;54.00;;;;;;5120628;28;20526;-63
2023/08/24 12:41:24;;;;;;;2.20;1.70;;;27.30;54.00;;;;;;5120546;27;20015;-61
2023/08/24 12:43:52;;;;;;;2.03;1.60;;;27.30;54.00;;;;;;5103650;27;20047;-67
2023/08/24 12:46:17;;;;;;;2.45;1.77;;;27.30;54.00;;;;;;5122151;27;20634;-67
2023/08/24 12:48:43;;;;;;;2.80;1.73;;;27.30;54.00;;;;;;5120056;27;20055;-67